sensor_id;sensor_type;location;lat;lon;timestamp;pressure;altitude;pressure_sealevel;temperature;humidity
73941;BME280;62294;48.554;10.202;2023-07-09T00:00:48;92083.66;;;15.60;100.00
73941;BME280;62294;48.554;10.202;2023-07-09T00:03:15;92051.59;;;15.63;100.00
73941;BME280;62294;48.554;10.202;2023-07-09T00:05:42;92007.13;;;15.75;100.00
73941;BME280;62294;48.554;10.202;2023-07-09T00:08:25;91965.16;;;15.79;100.00
73941;BME280;62294;48.554;10.202;2023-07-09T00:10:54;91965.44;;;15.74;100.00
73941;BME280;62294;48.554;10.202;2023-07-09T00:13:23;91963.88;;;15.73;100.00
73941;BME280;62294;48.554;10.202;2023-07-09T00:15:50;91968.31;;;15.65;100.00
73941;BME280;62294;48.554;10.202;2023-07-09T00:18:17;91964.25;;;15.55;100.00
73941;BME280;62294;48.554;10.202;2023-07-09T00:20:44;91963.31;;;15.48;100.00
73941;BME280;62294;48.554;10.202;2023-07-09T00:23:14;91951.63;;;15.40;100.00
73941;BME280;62294;48.554;10.202;2023-07-09T00:25:40;91931.88;;;15.45;100.00
73941;BME280;62294;48.554;10.202;2023-07-09T00:28:15;91882.06;;;15.56;100.00
73941;BME280;62294;48.554;10.202;2023-07-09T00:30:43;91866.50;;;15.61;100.00
73941;BME280;62294;48.554;10.202;2023-07-09T00:33:14;91856.59;;;15.62;100.00
73941;BME280;62294;48.554;10.202;2023-07-09T00:35:42;91841.69;;;15.45;100.00
73941;BME280;62294;48.554;10.202;2023-07-09T00:38:22;91855.31;;;15.40;100.00
73941;BME280;62294;48.554;10.202;2023-07-09T00:43:29;91826.47;;;15.49;100.00
73941;BME280;62294;48.554;10.202;2023-07-09T00:48:42;91837.13;;;15.46;100.00
73941;BME280;62294;48.554;10.202;2023-07-09T00:51:12;91845.50;;;15.44;100.00
73941;BME280;62294;48.554;10.202;2023-07-09T00:53:39;91853.78;;;15.39;100.00
73941;BME280;62294;48.554;10.202;2023-07-09T00:56:14;91861.13;;;15.27;100.00
73941;BME280;62294;48.554;10.202;2023-07-09T00:58:43;91767.50;;;15.27;100.00
73941;BME280;62294;48.554;10.202;2023-07-09T01:01:16;91701.28;;;15.20;100.00
73941;BME280;62294;48.554;10.202;2023-07-09T01:03:46;91766.88;;;15.14;100.00
73941;BME280;62294;48.554;10.202;2023-07-09T01:06:19;91767.72;;;15.18;100.00
73941;BME280;62294;48.554;10.202;2023-07-09T01:08:47;91763.06;;;15.15;100.00
73941;BME280;62294;48.554;10.202;2023-07-09T01:11:21;91781.63;;;15.08;100.00
73941;BME280;62294;48.554;10.202;2023-07-09T01:13:56;91786.56;;;15.06;100.00
73941;BME280;62294;48.554;10.202;2023-07-09T01:16:27;91767.50;;;15.08;100.00
73941;BME280;62294;48.554;10.202;2023-07-09T01:18:54;91766.72;;;15.07;100.00
73941;BME280;62294;48.554;10.202;2023-07-09T01:21:21;91776.47;;;15.00;100.00
73941;BME280;62294;48.554;10.202;2023-07-09T01:23:49;91786.06;;;15.01;100.00
73941;BME280;62294;48.554;10.202;2023-07-09T01:26:21;91780.34;;;15.02;100.00
73941;BME280;62294;48.554;10.202;2023-07-09T01:28:55;91777.41;;;15.07;100.00
73941;BME280;62294;48.554;10.202;2023-07-09T01:31:23;91775.44;;;15.04;100.00
73941;BME280;62294;48.554;10.202;2023-07-09T01:33:49;91790.13;;;14.94;100.00
73941;BME280;62294;48.554;10.202;2023-07-09T01:36:19;91804.09;;;14.88;100.00
73941;BME280;62294;48.554;10.202;2023-07-09T01:38:51;91799.47;;;14.85;100.00
73941;BME280;62294;48.554;10.202;2023-07-09T01:41:18;91810.09;;;14.66;100.00
73941;BME280;62294;48.554;10.202;2023-07-09T01:43:46;91797.81;;;14.65;100.00
73941;BME280;62294;48.554;10.202;2023-07-09T01:46:12;91798.44;;;14.58;100.00
73941;BME280;62294;48.554;10.202;2023-07-09T01:48:40;91753.59;;;14.67;100.00
73941;BME280;62294;48.554;10.202;2023-07-09T01:51:09;91731.28;;;14.75;100.00
73941;BME280;62294;48.554;10.202;2023-07-09T01:53:38;91719.03;;;14.74;100.00
73941;BME280;62294;48.554;10.202;2023-07-09T01:56:06;91708.00;;;14.76;100.00
73941;BME280;62294;48.554;10.202;2023-07-09T01:58:34;91713.69;;;14.74;100.00
73941;BME280;62294;48.554;10.202;2023-07-09T02:01:01;91724.94;;;14.64;100.00
73941;BME280;62294;48.554;10.202;2023-07-09T02:03:28;91740.03;;;14.57;100.00
73941;BME280;62294;48.554;10.202;2023-07-09T02:05:55;91762.94;;;14.42;100.00
73941;BME280;62294;48.554;10.202;2023-07-09T02:08:23;91755.97;;;14.38;100.00
73941;BME280;62294;48.554;10.202;2023-07-09T02:10:51;91753.91;;;14.31;100.00
73941;BME280;62294;48.554;10.202;2023-07-09T02:13:17;91727.31;;;14.35;100.00
73941;BME280;62294;48.554;10.202;2023-07-09T02:15:44;91701.00;;;14.37;100.00
73941;BME280;62294;48.554;10.202;2023-07-09T02:18:11;91671.09;;;14.47;100.00
73941;BME280;62294;48.554;10.202;2023-07-09T02:20:38;91665.69;;;14.43;100.00
73941;BME280;62294;48.554;10.202;2023-07-09T02:23:06;91657.66;;;14.43;100.00
73941;BME280;62294;48.554;10.202;2023-07-09T02:25:33;91656.03;;;14.39;100.00
73941;BME280;62294;48.554;10.202;2023-07-09T02:28:00;91658.13;;;14.30;100.00
73941;BME280;62294;48.554;10.202;2023-07-09T02:30:26;91657.56;;;14.24;100.00
73941;BME280;62294;48.554;10.202;2023-07-09T02:32:53;91645.00;;;14.24;100.00
73941;BME280;62294;48.554;10.202;2023-07-09T02:35:21;91661.13;;;14.12;100.00
73941;BME280;62294;48.554;10.202;2023-07-09T02:37:47;91649.25;;;14.10;100.00
73941;BME280;62294;48.554;10.202;2023-07-09T02:40:15;91630.63;;;14.13;100.00
73941;BME280;62294;48.554;10.202;2023-07-09T02:42:42;91598.34;;;14.18;100.00
73941;BME280;62294;48.554;10.202;2023-07-09T02:45:08;91589.97;;;14.20;100.00
73941;BME280;62294;48.554;10.202;2023-07-09T02:47:35;91586.88;;;14.18;100.00
73941;BME280;62294;48.554;10.202;2023-07-09T02:50:02;91590.66;;;14.17;100.00
73941;BME280;62294;48.554;10.202;2023-07-09T02:52:29;91597.50;;;14.14;100.00
73941;BME280;62294;48.554;10.202;2023-07-09T02:54:56;91581.81;;;14.13;100.00
73941;BME280;62294;48.554;10.202;2023-07-09T02:57:22;91597.75;;;14.09;100.00
73941;BME280;62294;48.554;10.202;2023-07-09T02:59:49;91613.19;;;14.00;100.00
73941;BME280;62294;48.554;10.202;2023-07-09T03:02:16;91640.22;;;13.83;100.00
73941;BME280;62294;48.554;10.202;2023-07-09T03:04:42;91652.28;;;13.77;100.00
73941;BME280;62294;48.554;10.202;2023-07-09T03:07:09;91636.94;;;13.74;100.00
73941;BME280;62294;48.554;10.202;2023-07-09T03:09:36;91617.16;;;13.75;100.00
73941;BME280;62294;48.554;10.202;2023-07-09T03:12:03;91598.50;;;13.75;100.00
73941;BME280;62294;48.554;10.202;2023-07-09T03:14:29;91589.91;;;13.66;100.00
73941;BME280;62294;48.554;10.202;2023-07-09T03:16:56;91544.34;;;13.75;100.00
73941;BME280;62294;48.554;10.202;2023-07-09T03:19:23;91542.88;;;13.77;100.00
73941;BME280;62294;48.554;10.202;2023-07-09T03:21:50;91531.78;;;13.75;100.00
73941;BME280;62294;48.554;10.202;2023-07-09T03:24:16;91510.44;;;13.75;100.00
73941;BME280;62294;48.554;10.202;2023-07-09T03:26:46;91468.44;;;13.72;100.00
73941;BME280;62294;48.554;10.202;2023-07-09T03:29:12;91489.88;;;13.60;100.00
73941;BME280;62294;48.554;10.202;2023-07-09T03:31:39;91480.50;;;13.66;100.00
73941;BME280;62294;48.554;10.202;2023-07-09T03:34:06;91464.81;;;13.80;100.00
73941;BME280;62294;48.554;10.202;2023-07-09T03:36:33;91459.81;;;13.79;100.00
73941;BME280;62294;48.554;10.202;2023-07-09T03:38:59;91456.03;;;13.80;100.00
73941;BME280;62294;48.554;10.202;2023-07-09T03:41:26;91461.69;;;13.78;100.00
73941;BME280;62294;48.554;10.202;2023-07-09T03:43:53;91465.16;;;13.79;100.00
73941;BME280;62294;48.554;10.202;2023-07-09T03:46:20;91450.50;;;13.88;100.00
73941;BME280;62294;48.554;10.202;2023-07-09T03:48:46;91449.81;;;13.91;100.00
73941;BME280;62294;48.554;10.202;2023-07-09T03:51:13;91450.75;;;13.83;100.00
73941;BME280;62294;48.554;10.202;2023-07-09T03:53:40;91457.22;;;13.82;100.00
73941;BME280;62294;48.554;10.202;2023-07-09T03:56:07;91432.22;;;13.90;100.00
73941;BME280;62294;48.554;10.202;2023-07-09T03:58:35;91413.34;;;13.99;100.00
73941;BME280;62294;48.554;10.202;2023-07-09T04:01:01;91417.34;;;14.08;100.00
73941;BME280;62294;48.554;10.202;2023-07-09T04:03:28;91424.16;;;14.06;100.00
73941;BME280;62294;48.554;10.202;2023-07-09T04:05:55;91428.78;;;14.09;100.00
73941;BME280;62294;48.554;10.202;2023-07-09T04:08:21;91429.72;;;14.16;100.00
73941;BME280;62294;48.554;10.202;2023-07-09T04:10:47;91459.34;;;14.11;100.00
73941;BME280;62294;48.554;10.202;2023-07-09T04:13:14;91467.09;;;14.16;100.00
73941;BME280;62294;48.554;10.202;2023-07-09T04:15:41;91472.84;;;14.18;100.00
73941;BME280;62294;48.554;10.202;2023-07-09T04:18:07;91481.28;;;14.20;100.00
73941;BME280;62294;48.554;10.202;2023-07-09T04:20:34;91494.63;;;14.20;100.00
73941;BME280;62294;48.554;10.202;2023-07-09T04:23:01;91499.44;;;14.31;100.00
73941;BME280;62294;48.554;10.202;2023-07-09T04:25:28;91506.47;;;14.39;100.00
73941;BME280;62294;48.554;10.202;2023-07-09T04:27:55;91499.72;;;14.45;100.00
73941;BME280;62294;48.554;10.202;2023-07-09T04:30:22;91491.56;;;14.57;100.00
73941;BME280;62294;48.554;10.202;2023-07-09T04:32:48;91491.56;;;14.57;100.00
73941;BME280;62294;48.554;10.202;2023-07-09T04:35:16;91496.34;;;14.67;100.00
73941;BME280;62294;48.554;10.202;2023-07-09T04:37:43;91494.63;;;14.78;100.00
73941;BME280;62294;48.554;10.202;2023-07-09T04:40:11;91496.41;;;14.93;100.00
73941;BME280;62294;48.554;10.202;2023-07-09T04:42:39;91500.47;;;15.06;100.00
73941;BME280;62294;48.554;10.202;2023-07-09T04:45:07;91498.81;;;15.21;100.00
73941;BME280;62294;48.554;10.202;2023-07-09T04:47:34;91539.34;;;15.23;100.00
73941;BME280;62294;48.554;10.202;2023-07-09T04:50:02;91541.13;;;15.38;100.00
73941;BME280;62294;48.554;10.202;2023-07-09T04:52:29;91564.22;;;15.46;100.00
73941;BME280;62294;48.554;10.202;2023-07-09T04:54:57;91574.38;;;15.59;100.00
73941;BME280;62294;48.554;10.202;2023-07-09T04:57:26;91587.19;;;15.70;100.00
73941;BME280;62294;48.554;10.202;2023-07-09T04:59:52;91606.75;;;15.74;100.00
73941;BME280;62294;48.554;10.202;2023-07-09T05:02:19;91609.44;;;16.00;100.00
73941;BME280;62294;48.554;10.202;2023-07-09T05:04:46;91632.59;;;16.11;100.00
73941;BME280;62294;48.554;10.202;2023-07-09T05:07:12;91634.47;;;16.33;100.00
73941;BME280;62294;48.554;10.202;2023-07-09T05:09:39;91650.81;;;16.51;100.00
73941;BME280;62294;48.554;10.202;2023-07-09T05:12:06;91693.44;;;16.60;100.00
73941;BME280;62294;48.554;10.202;2023-07-09T05:14:33;91732.25;;;16.69;100.00
73941;BME280;62294;48.554;10.202;2023-07-09T05:16:59;91763.91;;;16.86;100.00
73941;BME280;62294;48.554;10.202;2023-07-09T05:19:26;91797.34;;;16.92;100.00
73941;BME280;62294;48.554;10.202;2023-07-09T05:21:53;91844.41;;;17.13;100.00
73941;BME280;62294;48.554;10.202;2023-07-09T05:24:19;91876.59;;;17.39;100.00
73941;BME280;62294;48.554;10.202;2023-07-09T05:26:46;91897.63;;;17.59;100.00
73941;BME280;62294;48.554;10.202;2023-07-09T05:29:13;91932.47;;;17.82;100.00
73941;BME280;62294;48.554;10.202;2023-07-09T05:31:39;91999.44;;;17.94;100.00
73941;BME280;62294;48.554;10.202;2023-07-09T05:34:08;92042.84;;;18.22;100.00
73941;BME280;62294;48.554;10.202;2023-07-09T05:36:35;92067.22;;;18.63;100.00
73941;BME280;62294;48.554;10.202;2023-07-09T05:39:02;92036.78;;;19.58;100.00
73941;BME280;62294;48.554;10.202;2023-07-09T05:41:29;91953.00;;;21.57;100.00
73941;BME280;62294;48.554;10.202;2023-07-09T05:43:55;92293.09;;;22.51;100.00
73941;BME280;62294;48.554;10.202;2023-07-09T05:46:22;92532.50;;;24.53;100.00
73941;BME280;62294;48.554;10.202;2023-07-09T05:48:50;93394.84;;;23.75;100.00
73941;BME280;62294;48.554;10.202;2023-07-09T05:51:16;93755.84;;;23.01;100.00
73941;BME280;62294;48.554;10.202;2023-07-09T05:53:43;93780.31;;;23.04;100.00
73941;BME280;62294;48.554;10.202;2023-07-09T05:56:09;93830.91;;;22.69;100.00
73941;BME280;62294;48.554;10.202;2023-07-09T05:58:36;93866.91;;;23.16;100.00
73941;BME280;62294;48.554;10.202;2023-07-09T06:01:03;93969.00;;;23.40;100.00
73941;BME280;62294;48.554;10.202;2023-07-09T06:03:30;93982.94;;;23.89;100.00
73941;BME280;62294;48.554;10.202;2023-07-09T06:05:57;94010.59;;;24.26;100.00
73941;BME280;62294;48.554;10.202;2023-07-09T06:08:26;94077.94;;;24.71;100.00
73941;BME280;62294;48.554;10.202;2023-07-09T06:10:59;94255.66;;;25.16;100.00
73941;BME280;62294;48.554;10.202;2023-07-09T06:13:28;94316.50;;;23.82;100.00
73941;BME280;62294;48.554;10.202;2023-07-09T06:15:58;94217.31;;;23.84;100.00
73941;BME280;62294;48.554;10.202;2023-07-09T06:18:26;94217.78;;;23.86;100.00
73941;BME280;62294;48.554;10.202;2023-07-09T06:20:58;94295.78;;;23.50;100.00
73941;BME280;62294;48.554;10.202;2023-07-09T06:23:26;94282.31;;;23.53;100.00
73941;BME280;62294;48.554;10.202;2023-07-09T06:25:54;94307.53;;;23.29;100.00
73941;BME280;62294;48.554;10.202;2023-07-09T06:28:25;94297.69;;;23.37;100.00
73941;BME280;62294;48.554;10.202;2023-07-09T06:30:52;94279.81;;;23.48;100.00
73941;BME280;62294;48.554;10.202;2023-07-09T06:33:19;94328.94;;;23.71;100.00
73941;BME280;62294;48.554;10.202;2023-07-09T06:35:50;94253.53;;;25.25;100.00
73941;BME280;62294;48.554;10.202;2023-07-09T06:38:17;94537.69;;;24.40;100.00
73941;BME280;62294;48.554;10.202;2023-07-09T06:40:44;94457.84;;;24.68;100.00
73941;BME280;62294;48.554;10.202;2023-07-09T06:43:11;94481.97;;;25.41;100.00
73941;BME280;62294;48.554;10.202;2023-07-09T06:45:38;94585.28;;;24.74;100.00
73941;BME280;62294;48.554;10.202;2023-07-09T06:48:05;94653.47;;;25.32;100.00
73941;BME280;62294;48.554;10.202;2023-07-09T06:50:36;94715.53;;;25.43;100.00
73941;BME280;62294;48.554;10.202;2023-07-09T06:53:03;94721.91;;;24.62;100.00
73941;BME280;62294;48.554;10.202;2023-07-09T06:55:29;94610.19;;;25.83;100.00
73941;BME280;62294;48.554;10.202;2023-07-09T06:57:57;94846.69;;;26.12;100.00
73941;BME280;62294;48.554;10.202;2023-07-09T07:00:24;94890.00;;;26.72;100.00
73941;BME280;62294;48.554;10.202;2023-07-09T07:02:50;94965.94;;;27.14;100.00
73941;BME280;62294;48.554;10.202;2023-07-09T07:05:17;94991.16;;;26.55;100.00
73941;BME280;62294;48.554;10.202;2023-07-09T07:07:44;95071.06;;;26.71;100.00
73941;BME280;62294;48.554;10.202;2023-07-09T07:10:11;95031.84;;;25.88;100.00
73941;BME280;62294;48.554;10.202;2023-07-09T07:12:48;94914.34;;;26.38;100.00
73941;BME280;62294;48.554;10.202;2023-07-09T07:15:17;95093.59;;;27.36;100.00
73941;BME280;62294;48.554;10.202;2023-07-09T07:17:43;95144.31;;;27.49;100.00
73941;BME280;62294;48.554;10.202;2023-07-09T07:20:11;95269.47;;;28.02;100.00
73941;BME280;62294;48.554;10.202;2023-07-09T07:22:39;95334.09;;;28.38;100.00
73941;BME280;62294;48.554;10.202;2023-07-09T07:25:07;95301.22;;;27.55;100.00
73941;BME280;62294;48.554;10.202;2023-07-09T07:27:36;95384.75;;;28.08;100.00
73941;BME280;62294;48.554;10.202;2023-07-09T07:30:03;95289.44;;;27.79;100.00
73941;BME280;62294;48.554;10.202;2023-07-09T07:32:29;95320.69;;;29.23;100.00
73941;BME280;62294;48.554;10.202;2023-07-09T07:34:56;95538.44;;;30.11;100.00
73941;BME280;62294;48.554;10.202;2023-07-09T07:37:22;95577.03;;;29.31;100.00
73941;BME280;62294;48.554;10.202;2023-07-09T07:39:49;94483.06;;;28.43;100.00
73941;BME280;62294;48.554;10.202;2023-07-09T07:42:16;94089.50;;;28.90;100.00
73941;BME280;62294;48.554;10.202;2023-07-09T07:44:43;93964.00;;;28.67;100.00
73941;BME280;62294;48.554;10.202;2023-07-09T07:47:09;93669.16;;;29.05;100.00
73941;BME280;62294;48.554;10.202;2023-07-09T07:49:38;93443.34;;;29.76;100.00
73941;BME280;62294;48.554;10.202;2023-07-09T07:52:06;93256.75;;;30.15;100.00
73941;BME280;62294;48.554;10.202;2023-07-09T07:54:33;93055.00;;;31.01;100.00
73941;BME280;62294;48.554;10.202;2023-07-09T07:57:01;92903.88;;;32.03;100.00
73941;BME280;62294;48.554;10.202;2023-07-09T07:59:28;92952.16;;;30.24;100.00
73941;BME280;62294;48.554;10.202;2023-07-09T08:01:54;92720.16;;;29.58;100.00
73941;BME280;62294;48.554;10.202;2023-07-09T08:04:21;92874.94;;;30.32;100.00
73941;BME280;62294;48.554;10.202;2023-07-09T08:06:48;92919.81;;;29.08;100.00
73941;BME280;62294;48.554;10.202;2023-07-09T08:09:15;93134.41;;;32.13;100.00
73941;BME280;62294;48.554;10.202;2023-07-09T08:11:43;94048.03;;;31.15;100.00
73941;BME280;62294;48.554;10.202;2023-07-09T08:14:10;94141.09;;;31.93;100.00
73941;BME280;62294;48.554;10.202;2023-07-09T08:16:37;94288.31;;;32.01;100.00
73941;BME280;62294;48.554;10.202;2023-07-09T08:19:04;94146.44;;;30.32;100.00
73941;BME280;62294;48.554;10.202;2023-07-09T08:21:32;94316.19;;;31.18;100.00
73941;BME280;62294;48.554;10.202;2023-07-09T08:23:58;94215.59;;;29.97;100.00
73941;BME280;62294;48.554;10.202;2023-07-09T08:26:25;94252.66;;;30.84;100.00
73941;BME280;62294;48.554;10.202;2023-07-09T08:28:52;94415.88;;;31.89;100.00
73941;BME280;62294;48.554;10.202;2023-07-09T08:31:19;94493.19;;;31.77;100.00
73941;BME280;62294;48.554;10.202;2023-07-09T08:33:46;94489.69;;;32.58;100.00
73941;BME280;62294;48.554;10.202;2023-07-09T08:36:13;94496.91;;;33.35;100.00
73941;BME280;62294;48.554;10.202;2023-07-09T08:38:40;94532.50;;;33.77;100.00
73941;BME280;62294;48.554;10.202;2023-07-09T08:48:44;94649.97;;;33.25;100.00
73941;BME280;62294;48.554;10.202;2023-07-09T08:51:17;94506.97;;;32.44;100.00
73941;BME280;62294;48.554;10.202;2023-07-09T08:53:50;94663.75;;;33.22;100.00
73941;BME280;62294;48.554;10.202;2023-07-09T08:56:18;94712.09;;;32.77;100.00
73941;BME280;62294;48.554;10.202;2023-07-09T08:58:46;94719.09;;;32.43;100.00
73941;BME280;62294;48.554;10.202;2023-07-09T09:04:22;94872.41;;;32.49;100.00
73941;BME280;62294;48.554;10.202;2023-07-09T09:07:26;94846.16;;;32.80;100.00
73941;BME280;62294;48.554;10.202;2023-07-09T09:10:02;94735.69;;;31.13;100.00
73941;BME280;62294;48.554;10.202;2023-07-09T09:12:35;94735.41;;;31.90;100.00
73941;BME280;62294;48.554;10.202;2023-07-09T09:15:14;94667.41;;;31.66;100.00
73941;BME280;62294;48.554;10.202;2023-07-09T09:17:42;94687.25;;;32.31;100.00
73941;BME280;62294;48.554;10.202;2023-07-09T09:20:21;94822.63;;;33.00;100.00
73941;BME280;62294;48.554;10.202;2023-07-09T09:22:53;94864.19;;;32.63;100.00
73941;BME280;62294;48.554;10.202;2023-07-09T09:25:26;94874.66;;;32.33;100.00
73941;BME280;62294;48.554;10.202;2023-07-09T09:27:54;94924.47;;;32.21;100.00
73941;BME280;62294;48.554;10.202;2023-07-09T09:30:22;94993.66;;;32.95;100.00
73941;BME280;62294;48.554;10.202;2023-07-09T09:32:58;94875.00;;;33.11;100.00
73941;BME280;62294;48.554;10.202;2023-07-09T09:35:30;94886.59;;;32.65;100.00
73941;BME280;62294;48.554;10.202;2023-07-09T09:37:58;94979.38;;;32.68;100.00
73941;BME280;62294;48.554;10.202;2023-07-09T09:40:27;95078.19;;;33.67;100.00
73941;BME280;62294;48.554;10.202;2023-07-09T09:42:57;95108.63;;;33.16;100.00
73941;BME280;62294;48.554;10.202;2023-07-09T09:45:28;95141.13;;;33.57;100.00
73941;BME280;62294;48.554;10.202;2023-07-09T09:48:00;95176.66;;;33.77;100.00
73941;BME280;62294;48.554;10.202;2023-07-09T09:50:31;95181.53;;;34.15;100.00
73941;BME280;62294;48.554;10.202;2023-07-09T09:52:59;95332.16;;;33.76;100.00
73941;BME280;62294;48.554;10.202;2023-07-09T09:55:29;95287.44;;;32.98;100.00
73941;BME280;62294;48.554;10.202;2023-07-09T09:57:56;95290.16;;;35.07;100.00
73941;BME280;62294;48.554;10.202;2023-07-09T10:00:28;95296.00;;;33.30;100.00
73941;BME280;62294;48.554;10.202;2023-07-09T10:03:01;95370.31;;;35.56;100.00
73941;BME280;62294;48.554;10.202;2023-07-09T10:05:38;95482.59;;;34.24;100.00
73941;BME280;62294;48.554;10.202;2023-07-09T10:08:10;95468.63;;;33.55;100.00
73941;BME280;62294;48.554;10.202;2023-07-09T10:10:39;95512.94;;;34.24;100.00
73941;BME280;62294;48.554;10.202;2023-07-09T10:13:20;95772.84;;;37.53;100.00
73941;BME280;62294;48.554;10.202;2023-07-09T10:21:14;95905.13;;;37.45;100.00
73941;BME280;62294;48.554;10.202;2023-07-09T10:24:03;95884.91;;;38.05;100.00
73941;BME280;62294;48.554;10.202;2023-07-09T10:26:44;95794.53;;;36.59;100.00
73941;BME280;62294;48.554;10.202;2023-07-09T10:33:06;95862.34;;;35.13;100.00
73941;BME280;62294;48.554;10.202;2023-07-09T10:38:19;95852.25;;;34.57;100.00
73941;BME280;62294;48.554;10.202;2023-07-09T10:40:55;95800.66;;;33.98;100.00
73941;BME280;62294;48.554;10.202;2023-07-09T10:43:37;95933.72;;;35.95;100.00
73941;BME280;62294;48.554;10.202;2023-07-09T10:46:17;95948.06;;;36.07;100.00
73941;BME280;62294;48.554;10.202;2023-07-09T10:48:48;96025.50;;;36.04;100.00
73941;BME280;62294;48.554;10.202;2023-07-09T10:51:22;95937.69;;;34.47;100.00
73941;BME280;62294;48.554;10.202;2023-07-09T10:54:03;95862.03;;;33.92;100.00
73941;BME280;62294;48.554;10.202;2023-07-09T10:56:35;95973.78;;;36.73;100.00
73941;BME280;62294;48.554;10.202;2023-07-09T10:59:22;96074.75;;;38.95;100.00
73941;BME280;62294;48.554;10.202;2023-07-09T11:01:57;96091.09;;;38.65;100.00
73941;BME280;62294;48.554;10.202;2023-07-09T11:04:46;96111.31;;;38.69;100.00
73941;BME280;62294;48.554;10.202;2023-07-09T11:07:20;96039.63;;;36.39;100.00
73941;BME280;62294;48.554;10.202;2023-07-09T11:09:48;96059.91;;;35.66;100.00
73941;BME280;62294;48.554;10.202;2023-07-09T11:12:32;96063.50;;;36.10;100.00
73941;BME280;62294;48.554;10.202;2023-07-09T11:15:07;96105.06;;;37.33;100.00
73941;BME280;62294;48.554;10.202;2023-07-09T11:17:40;96101.47;;;37.22;100.00
73941;BME280;62294;48.554;10.202;2023-07-09T11:20:17;96049.94;;;37.07;100.00
73941;BME280;62294;48.554;10.202;2023-07-09T11:22:52;96061.22;;;37.53;100.00
73941;BME280;62294;48.554;10.202;2023-07-09T11:25:30;96100.97;;;39.01;100.00
73941;BME280;62294;48.554;10.202;2023-07-09T11:28:05;96111.69;;;38.08;100.00
73941;BME280;62294;48.554;10.202;2023-07-09T11:30:33;96036.88;;;34.36;100.00
73941;BME280;62294;48.554;10.202;2023-07-09T11:33:04;96030.19;;;34.11;100.00
73941;BME280;62294;48.554;10.202;2023-07-09T11:36:05;96068.88;;;35.23;100.00
73941;BME280;62294;48.554;10.202;2023-07-09T11:38:40;96072.94;;;34.24;100.00
73941;BME280;62294;48.554;10.202;2023-07-09T11:41:41;96039.31;;;33.50;100.00
73941;BME280;62294;48.554;10.202;2023-07-09T11:49:29;96093.59;;;35.79;100.00
73941;BME280;62294;48.554;10.202;2023-07-09T11:52:04;96140.81;;;35.59;100.00
73941;BME280;62294;48.554;10.202;2023-07-09T11:54:37;96180.88;;;35.76;100.00
73941;BME280;62294;48.554;10.202;2023-07-09T11:57:11;96148.00;;;37.67;100.00
73941;BME280;62294;48.554;10.202;2023-07-09T11:59:41;96152.53;;;38.25;100.00
73941;BME280;62294;48.554;10.202;2023-07-09T12:02:16;96111.44;;;36.69;100.00
73941;BME280;62294;48.554;10.202;2023-07-09T12:04:44;96057.41;;;34.61;100.00
73941;BME280;62294;48.554;10.202;2023-07-09T12:07:13;96037.09;;;33.79;100.00
73941;BME280;62294;48.554;10.202;2023-07-09T12:09:47;96089.09;;;37.02;100.00
73941;BME280;62294;48.554;10.202;2023-07-09T12:12:19;96048.97;;;36.20;100.00
73941;BME280;62294;48.554;10.202;2023-07-09T12:14:46;96120.00;;;38.18;100.00
73941;BME280;62294;48.554;10.202;2023-07-09T12:17:12;96072.06;;;35.58;100.00
73941;BME280;62294;48.554;10.202;2023-07-09T12:19:39;96088.53;;;36.79;100.00
73941;BME280;62294;48.554;10.202;2023-07-09T12:22:10;96116.31;;;37.68;100.00
73941;BME280;62294;48.554;10.202;2023-07-09T12:24:43;96119.28;;;38.81;100.00
73941;BME280;62294;48.554;10.202;2023-07-09T12:27:31;96084.13;;;36.16;100.00
73941;BME280;62294;48.554;10.202;2023-07-09T12:30:11;96108.41;;;37.67;100.00
73941;BME280;62294;48.554;10.202;2023-07-09T12:32:44;96131.94;;;38.37;100.00
73941;BME280;62294;48.554;10.202;2023-07-09T12:35:13;96114.00;;;36.95;100.00
73941;BME280;62294;48.554;10.202;2023-07-09T12:37:42;96134.78;;;37.33;100.00
73941;BME280;62294;48.554;10.202;2023-07-09T12:40:15;96110.09;;;35.68;100.00
73941;BME280;62294;48.554;10.202;2023-07-09T12:42:43;96103.25;;;35.55;100.00
73941;BME280;62294;48.554;10.202;2023-07-09T12:45:17;96137.06;;;38.17;100.00
73941;BME280;62294;48.554;10.202;2023-07-09T12:47:46;96157.38;;;38.49;100.00
73941;BME280;62294;48.554;10.202;2023-07-09T12:50:33;96096.47;;;34.63;100.00
73941;BME280;62294;48.554;10.202;2023-07-09T12:53:03;96102.41;;;36.31;100.00
73941;BME280;62294;48.554;10.202;2023-07-09T12:55:40;96110.38;;;36.40;100.00
73941;BME280;62294;48.554;10.202;2023-07-09T12:58:19;96148.56;;;38.19;100.00
73941;BME280;62294;48.554;10.202;2023-07-09T13:00:54;96162.53;;;38.75;100.00
73941;BME280;62294;48.554;10.202;2023-07-09T13:03:30;96158.91;;;38.29;100.00
73941;BME280;62294;48.554;10.202;2023-07-09T13:06:04;96177.88;;;39.54;100.00
73941;BME280;62294;48.554;10.202;2023-07-09T13:08:40;96159.00;;;36.38;100.00
73941;BME280;62294;48.554;10.202;2023-07-09T13:11:16;96142.41;;;37.46;100.00
73941;BME280;62294;48.554;10.202;2023-07-09T13:14:05;96143.56;;;35.96;100.00
73941;BME280;62294;48.554;10.202;2023-07-09T13:16:39;96137.38;;;37.84;100.00
73941;BME280;62294;48.554;10.202;2023-07-09T13:19:10;96141.75;;;35.74;100.00
73941;BME280;62294;48.554;10.202;2023-07-09T13:21:38;96107.59;;;33.38;100.00
73941;BME280;62294;48.554;10.202;2023-07-09T13:24:22;96106.91;;;33.44;100.00
73941;BME280;62294;48.554;10.202;2023-07-09T13:26:50;96108.41;;;35.01;100.00